createdAt,value
2019-05-10T00:00:45.195Z,100.00
2019-05-10T00:06:05.320Z,100.00
2019-05-10T00:11:26.854Z,100.00
2019-05-10T00:16:29.035Z,100.00
2019-05-10T00:21:32.325Z,100.00
2019-05-10T00:26:34.390Z,100.00
2019-05-10T00:31:36.309Z,100.00
2019-05-10T00:36:38.383Z,100.00
2019-05-10T00:41:40.190Z,100.00
2019-05-10T00:46:42.129Z,100.00
2019-05-10T00:51:44.064Z,100.00
2019-05-10T00:56:46.307Z,100.00
2019-05-10T01:01:49.420Z,100.00
2019-05-10T01:06:51.497Z,100.00
2019-05-10T01:11:53.398Z,100.00
2019-05-10T01:16:55.411Z,100.00
2019-05-10T01:21:57.223Z,100.00
2019-05-10T01:26:59.377Z,100.00
2019-05-10T01:32:01.369Z,100.00
2019-05-10T01:37:03.388Z,100.00
2019-05-10T01:42:05.293Z,100.00
2019-05-10T01:47:07.110Z,100.00
2019-05-10T01:52:09.014Z,100.00
2019-05-10T01:57:10.948Z,100.00
2019-05-10T02:02:12.866Z,100.00
2019-05-10T02:07:15.292Z,100.00
2019-05-10T02:12:17.202Z,100.00
2019-05-10T02:17:21.219Z,100.00
2019-05-10T02:22:23.150Z,100.00
2019-05-10T02:27:26.158Z,100.00
2019-05-10T02:32:27.982Z,100.00
2019-05-10T02:37:30.198Z,100.00
2019-05-10T02:42:32.016Z,100.00
2019-05-10T02:47:35.119Z,100.00
2019-05-10T02:52:39.113Z,100.00
2019-05-10T02:57:42.407Z,100.00
2019-05-10T03:02:44.903Z,100.00
2019-05-10T03:07:47.597Z,100.00
2019-05-10T03:12:52.229Z,100.00
2019-05-10T03:17:56.190Z,100.00
2019-05-10T03:22:59.253Z,100.00
2019-05-10T03:28:01.175Z,100.00
2019-05-10T03:33:03.232Z,100.00
2019-05-10T03:38:11.118Z,100.00
2019-05-10T03:43:13.193Z,100.00
2019-05-10T03:48:15.019Z,100.00
2019-05-10T03:53:19.447Z,100.00
2019-05-10T03:58:21.332Z,100.00
2019-05-10T04:03:25.338Z,100.00
2019-05-10T04:08:29.157Z,100.00
2019-05-10T04:13:31.078Z,100.00
2019-05-10T04:18:35.819Z,100.00
2019-05-10T04:23:39.392Z,100.00
2019-05-10T04:28:42.957Z,100.00
2019-05-10T04:33:46.499Z,100.00
2019-05-10T04:38:48.608Z,100.00
2019-05-10T04:43:50.833Z,100.00
2019-05-10T04:48:54.887Z,100.00
2019-05-10T04:54:00.450Z,100.00
2019-05-10T04:59:03.586Z,100.00
2019-05-10T05:04:07.257Z,100.00
2019-05-10T05:09:09.194Z,100.00
2019-05-10T05:14:11.136Z,100.00
2019-05-10T05:19:14.202Z,100.00
2019-05-10T05:24:22.324Z,100.00
2019-05-10T05:29:20.360Z,100.00
2019-05-10T05:34:22.308Z,100.00
2019-05-10T05:39:24.165Z,100.00
2019-05-10T05:44:28.900Z,100.00
2019-05-10T05:49:30.710Z,100.00
2019-05-10T05:54:34.063Z,100.00
2019-05-10T05:59:37.193Z,100.00
2019-05-10T06:04:40.732Z,100.00
2019-05-10T06:09:44.246Z,100.00
2019-05-10T06:14:49.991Z,100.00
2019-05-10T06:19:51.767Z,100.00
2019-05-10T06:24:54.027Z,100.00
2019-05-10T06:29:56.034Z,100.00
2019-05-10T06:34:57.972Z,100.00
2019-05-10T06:40:02.892Z,100.00
2019-05-10T06:45:14.285Z,100.00
2019-05-10T06:50:12.323Z,100.00
2019-05-10T06:55:14.296Z,100.00
2019-05-10T07:00:17.677Z,100.00
2019-05-10T07:05:19.690Z,100.00
2019-05-10T07:10:25.167Z,100.00
2019-05-10T07:15:25.479Z,100.00
2019-05-10T07:20:29.621Z,100.00
2019-05-10T07:25:37.699Z,100.00
2019-05-10T07:30:41.612Z,100.00
2019-05-10T07:35:45.123Z,100.00
2019-05-10T07:40:48.810Z,100.00
2019-05-10T07:45:50.765Z,100.00
2019-05-10T07:50:52.761Z,100.00
2019-05-10T07:55:59.935Z,100.00
2019-05-10T08:00:58.670Z,100.00
2019-05-10T08:06:02.292Z,100.00
2019-05-10T08:11:04.209Z,100.00
2019-05-10T08:16:11.803Z,100.00
2019-05-10T08:21:21.820Z,100.00
2019-05-10T08:26:24.127Z,100.00
2019-05-10T08:31:25.915Z,100.00
2019-05-10T08:36:28.815Z,95.59
2019-05-10T08:41:32.682Z,98.86
2019-05-10T08:46:41.282Z,100.00
2019-05-10T08:51:43.788Z,100.00
2019-05-10T08:56:46.686Z,100.00
2019-05-10T09:01:50.896Z,100.00
2019-05-10T09:06:55.555Z,100.00
2019-05-10T09:11:57.733Z,100.00
2019-05-10T09:17:05.074Z,100.00
2019-05-10T09:22:06.898Z,98.37
2019-05-10T09:27:08.918Z,100.00
2019-05-10T09:32:12.588Z,100.00
2019-05-10T09:37:17.697Z,100.00
2019-05-10T09:42:26.424Z,100.00
2019-05-10T09:47:23.101Z,100.00
2019-05-10T09:52:26.397Z,100.00
2019-05-10T09:57:32.284Z,100.00
2019-05-10T10:02:34.435Z,100.00
2019-05-10T10:07:37.367Z,100.00
2019-05-10T10:12:39.464Z,94.75
2019-05-10T10:17:42.491Z,100.00
2019-05-10T10:22:52.616Z,91.80
2019-05-10T10:27:53.141Z,98.70
2019-05-10T10:32:55.292Z,92.23
2019-05-10T10:38:02.226Z,99.61
2019-05-10T10:43:00.923Z,97.52
2019-05-10T10:48:10.643Z,88.94
2019-05-10T10:53:08.010Z,91.29
2019-05-10T10:58:10.140Z,96.34
2019-05-10T11:03:12.061Z,84.54
2019-05-10T11:08:17.763Z,100.00
2019-05-10T11:13:39.862Z,100.00
2019-05-10T11:18:23.447Z,100.00
2019-05-10T11:23:34.008Z,100.00
2019-05-10T11:28:30.131Z,100.00
2019-05-10T11:33:33.978Z,71.16
2019-05-10T11:38:36.151Z,63.43
2019-05-10T11:43:38.612Z,81.82
2019-05-10T11:48:42.667Z,84.63
2019-05-10T11:53:49.082Z,99.41
2019-05-10T11:58:55.554Z,79.40
2019-05-10T12:03:56.571Z,87.13
2019-05-10T12:09:02.149Z,78.78
2019-05-10T12:14:02.698Z,74.74
2019-05-10T12:19:17.065Z,88.54
2019-05-10T12:24:31.181Z,92.62
2019-05-10T12:29:18.155Z,71.64
2019-05-10T12:34:20.703Z,77.12
2019-05-10T12:39:24.581Z,71.97
2019-05-10T12:44:28.556Z,77.78
2019-05-10T12:49:31.510Z,76.16
2019-05-10T12:54:35.768Z,65.87
2019-05-10T12:59:37.628Z,90.46
2019-05-10T13:04:52.466Z,65.03
2019-05-10T13:09:56.086Z,81.73
2019-05-10T13:14:57.004Z,76.96
2019-05-10T13:20:00.599Z,73.65
2019-05-10T13:25:03.941Z,75.11
2019-05-10T13:30:06.962Z,69.34
2019-05-10T13:35:09.006Z,77.96
2019-05-10T13:40:13.667Z,78.28
2019-05-10T13:45:15.661Z,71.44
2019-05-10T13:50:19.113Z,71.30
2019-05-10T13:55:24.793Z,80.09
2019-05-10T14:00:34.231Z,67.68
2019-05-10T14:05:33.093Z,71.45
2019-05-10T14:10:36.727Z,75.75
2019-05-10T14:15:38.748Z,83.89
2019-05-10T14:20:40.651Z,90.69
2019-05-10T14:25:42.549Z,90.86
2019-05-10T14:30:46.961Z,75.98
2019-05-10T14:35:48.414Z,74.18
2019-05-10T14:40:50.284Z,71.78
2019-05-10T14:45:56.637Z,79.35
2019-05-10T14:51:03.044Z,79.70
2019-05-10T14:56:07.893Z,80.45
2019-05-10T15:01:06.639Z,88.13
2019-05-10T15:06:08.882Z,83.49
2019-05-10T15:11:11.976Z,72.76
2019-05-10T15:16:26.083Z,92.66
2019-05-10T15:21:18.517Z,83.66
2019-05-10T15:26:20.511Z,61.40
2019-05-10T15:31:23.671Z,70.80
2019-05-10T15:36:29.836Z,78.76
2019-05-10T15:41:30.611Z,74.24
2019-05-10T15:46:38.690Z,77.80
2019-05-10T15:51:36.894Z,84.82
2019-05-10T15:56:41.475Z,83.37
2019-05-10T16:01:46.025Z,76.22
2019-05-10T16:06:50.983Z,65.78
2019-05-10T16:11:56.186Z,67.41
2019-05-10T16:17:00.678Z,74.09
2019-05-10T16:22:02.585Z,62.34
2019-05-10T16:27:04.840Z,63.68
2019-05-10T16:32:06.833Z,66.35
2019-05-10T16:37:10.661Z,67.67
2019-05-10T16:42:12.573Z,65.68
2019-05-10T16:47:14.493Z,73.36
2019-05-10T16:52:19.515Z,75.20
2019-05-10T16:57:20.525Z,73.63
2019-05-10T17:02:25.465Z,86.76
2019-05-10T17:07:27.532Z,93.95
2019-05-10T17:12:29.462Z,88.82
2019-05-10T17:17:37.077Z,83.78
2019-05-10T17:22:35.550Z,73.92
2019-05-10T17:27:37.491Z,73.72
2019-05-10T17:32:39.610Z,73.04
2019-05-10T17:37:41.750Z,75.92
2019-05-10T17:42:51.506Z,78.07
2019-05-10T17:47:53.107Z,77.18
2019-05-10T17:52:56.428Z,82.05
2019-05-10T17:57:58.854Z,90.93
2019-05-10T18:03:00.752Z,100.00
2019-05-10T18:08:02.702Z,81.83
2019-05-10T18:13:05.260Z,89.59
2019-05-10T18:18:07.473Z,92.90
2019-05-10T18:23:09.508Z,94.85
2019-05-10T18:28:11.558Z,96.46
2019-05-10T18:33:19.142Z,100.00
2019-05-10T18:38:24.045Z,100.00
2019-05-10T18:43:26.136Z,100.00
2019-05-10T18:48:30.632Z,100.00
2019-05-10T18:53:32.684Z,100.00
2019-05-10T18:58:34.599Z,100.00
2019-05-10T19:03:36.598Z,100.00
2019-05-10T19:08:38.498Z,100.00
2019-05-10T19:13:47.331Z,100.00
2019-05-10T19:18:44.250Z,100.00
2019-05-10T19:23:46.100Z,100.00
2019-05-10T19:28:47.976Z,100.00
2019-05-10T19:33:49.920Z,100.00
2019-05-10T19:38:51.954Z,100.00
2019-05-10T19:44:02.675Z,100.00
2019-05-10T19:49:00.347Z,100.00
2019-05-10T19:54:02.966Z,100.00
2019-05-10T19:59:10.913Z,100.00
2019-05-10T20:04:09.559Z,100.00
2019-05-10T20:09:11.582Z,100.00
2019-05-10T20:14:15.337Z,100.00
2019-05-10T20:19:17.219Z,100.00
2019-05-10T20:24:23.196Z,100.00
2019-05-10T20:29:26.423Z,100.00
2019-05-10T20:34:31.190Z,100.00
2019-05-10T20:39:35.041Z,100.00
2019-05-10T20:44:37.054Z,100.00
2019-05-10T20:49:41.314Z,100.00
2019-05-10T20:54:44.787Z,100.00
2019-05-10T20:59:47.602Z,100.00
2019-05-10T21:04:49.590Z,100.00
2019-05-10T21:09:56.170Z,100.00
2019-05-10T21:14:58.303Z,100.00
2019-05-10T21:20:04.593Z,100.00
2019-05-10T21:25:07.741Z,100.00
2019-05-10T21:30:15.221Z,100.00
2019-05-10T21:35:18.979Z,100.00
2019-05-10T21:40:20.952Z,100.00
2019-05-10T21:45:23.035Z,100.00
2019-05-10T21:50:25.021Z,100.00
2019-05-10T21:55:27.889Z,100.00
2019-05-10T22:00:34.102Z,100.00
2019-05-10T22:05:36.278Z,100.00
2019-05-10T22:10:38.218Z,100.00
2019-05-10T22:15:40.738Z,100.00
2019-05-10T22:20:42.696Z,100.00
2019-05-10T22:25:44.730Z,100.00
2019-05-10T22:30:46.697Z,100.00
2019-05-10T22:35:48.810Z,100.00
2019-05-10T22:40:50.745Z,100.00
2019-05-10T22:45:54.222Z,100.00
2019-05-10T22:50:58.523Z,100.00
2019-05-10T22:56:00.879Z,100.00
2019-05-10T23:01:02.802Z,100.00
2019-05-10T23:06:04.903Z,100.00
2019-05-10T23:11:08.337Z,100.00
2019-05-10T23:16:10.352Z,100.00
2019-05-10T23:21:14.939Z,100.00
2019-05-10T23:26:17.142Z,100.00
2019-05-10T23:31:18.984Z,100.00
2019-05-10T23:36:21.044Z,100.00
2019-05-10T23:41:25.264Z,100.00
2019-05-10T23:46:27.461Z,100.00
2019-05-10T23:51:29.400Z,100.00
2019-05-10T23:56:32.444Z,100.00
